Lester Pr, Minnesota
Current Conditions -  °F | °C
As of 4:14 PM on Sunday 21 Dec 2014 (Local Time) from KGYL Reporting Station
Haze Haze  
Wind Chill: 30°   Ceiling: 300
Heat Index: 37°   Visibility: 1.2mi
Dew Point: 37°   Wind: 9mph
Humidity: 100%   Direction: 150°SSE
Pressure: 29.7"   Gusts: NA
Location:  44.8552°N, 94.071°W
Report Text: KGYL 212214Z AUTO 15008KT 1 1/4SM BR OVC003 03/03 A2970 RMK AO2 T00260026
Loading
Personal Weather Stations






























Interactive Weather Map New forecast layout! Learn more

10-Day Weather Forecast

Advertisements
Track Severe Weather on mobile